createdAt,value
2022-08-12T00:00:09.645Z,22.70
2022-08-12T00:02:55.470Z,22.70
2022-08-12T00:05:58.281Z,22.60
2022-08-12T00:08:51.118Z,22.60
2022-08-12T00:11:36.922Z,22.60
2022-08-12T00:14:22.809Z,22.50
2022-08-12T00:17:09.139Z,22.50
2022-08-12T00:19:54.930Z,22.50
2022-08-12T00:22:42.079Z,22.60
2022-08-12T00:26:05.464Z,22.50
2022-08-12T00:28:34.434Z,22.30
2022-08-12T00:31:20.421Z,22.40
2022-08-12T00:34:06.260Z,22.40
2022-08-12T00:36:52.813Z,22.40
2022-08-12T00:39:40.784Z,22.30
2022-08-12T00:42:12.012Z,22.40
2022-08-12T00:44:43.204Z,22.40
2022-08-12T00:47:24.123Z,22.30
2022-08-12T00:49:54.315Z,22.30
2022-08-12T00:52:23.370Z,22.30
2022-08-12T00:54:54.238Z,22.20
2022-08-12T00:57:25.814Z,22.20
2022-08-12T00:59:56.117Z,22.20
2022-08-12T01:02:25.885Z,22.20
2022-08-12T01:05:13.010Z,22.30
2022-08-12T01:08:10.906Z,22.20
2022-08-12T01:10:59.261Z,22.20
2022-08-12T01:13:29.286Z,22.20
2022-08-12T01:15:59.129Z,22.30
2022-08-12T01:18:29.366Z,22.20
2022-08-12T01:21:21.035Z,22.20
2022-08-12T01:23:58.386Z,22.20
2022-08-12T01:26:28.467Z,22.20
2022-08-12T01:28:58.473Z,22.10
2022-08-12T01:31:28.070Z,22.10
2022-08-12T01:34:04.577Z,22.10
2022-08-12T01:36:37.704Z,22.00
2022-08-12T01:39:06.832Z,22.10
2022-08-12T01:41:41.223Z,22.10
2022-08-12T01:44:10.821Z,22.10
2022-08-12T01:46:45.091Z,22.10
2022-08-12T01:49:23.317Z,22.00
2022-08-12T01:52:20.063Z,22.00
2022-08-12T01:54:51.459Z,22.00
2022-08-12T01:57:58.636Z,21.90
2022-08-12T02:00:15.243Z,21.90
2022-08-12T02:02:47.019Z,21.90
2022-08-12T02:05:36.256Z,21.90
2022-08-12T02:08:36.120Z,21.80
2022-08-12T02:11:19.179Z,21.80
2022-08-12T02:13:51.970Z,21.70
2022-08-12T02:16:24.855Z,21.70
2022-08-12T02:19:00.321Z,21.70
2022-08-12T02:21:32.884Z,21.70
2022-08-12T02:24:02.179Z,21.60
2022-08-12T02:26:34.320Z,21.70
2022-08-12T02:29:04.767Z,21.70
2022-08-12T02:31:33.496Z,21.70
2022-08-12T02:34:02.816Z,21.70
2022-08-12T02:36:33.493Z,21.60
2022-08-12T02:39:04.698Z,21.70
2022-08-12T02:41:34.094Z,21.50
2022-08-12T02:44:07.663Z,21.50
2022-08-12T02:46:37.321Z,21.50
2022-08-12T02:49:11.854Z,21.50
2022-08-12T02:51:43.198Z,21.40
2022-08-12T02:54:12.353Z,21.40
2022-08-12T02:56:41.972Z,21.40
2022-08-12T02:59:27.956Z,21.40
2022-08-12T03:01:57.364Z,21.30
2022-08-12T03:04:27.585Z,21.40
2022-08-12T03:07:02.396Z,21.40
2022-08-12T03:09:55.349Z,21.30
2022-08-12T03:12:25.227Z,21.30
2022-08-12T03:14:56.139Z,21.30
2022-08-12T03:17:29.269Z,21.30
2022-08-12T03:20:08.630Z,21.30
2022-08-12T03:22:40.837Z,21.30
2022-08-12T03:25:13.826Z,21.30
2022-08-12T03:27:50.003Z,21.30
2022-08-12T03:30:21.287Z,21.30
2022-08-12T03:32:51.294Z,21.30
2022-08-12T03:35:40.695Z,21.30
2022-08-12T03:38:12.586Z,21.30
2022-08-12T03:41:04.273Z,21.30
2022-08-12T03:44:14.340Z,21.40
2022-08-12T03:47:04.367Z,21.30
2022-08-12T03:50:09.890Z,21.40
2022-08-12T03:52:55.903Z,21.40
2022-08-12T03:55:41.835Z,21.50
2022-08-12T03:58:29.256Z,21.50
2022-08-12T04:00:58.918Z,21.50
2022-08-12T04:03:46.384Z,21.50
2022-08-12T04:06:35.287Z,21.60
2022-08-12T04:09:16.140Z,21.60
2022-08-12T04:12:22.018Z,21.60
2022-08-12T04:14:57.160Z,21.60
2022-08-12T04:17:28.402Z,21.70
2022-08-12T04:19:59.593Z,21.70
2022-08-12T04:22:31.015Z,21.70
2022-08-12T04:25:01.604Z,21.70
2022-08-12T04:27:32.240Z,21.80
2022-08-12T04:30:16.758Z,21.90
2022-08-12T04:32:51.919Z,21.90
2022-08-12T04:35:22.219Z,22.00
2022-08-12T04:37:58.423Z,22.00
2022-08-12T04:40:30.301Z,22.10
2022-08-12T04:43:01.692Z,22.10
2022-08-12T04:45:31.128Z,22.10
2022-08-12T04:47:59.772Z,22.20
2022-08-12T04:50:36.148Z,22.20
2022-08-12T04:53:06.458Z,22.20
2022-08-12T04:55:35.932Z,22.20
2022-08-12T04:58:04.453Z,22.30
2022-08-12T05:00:33.213Z,22.30
2022-08-12T05:03:01.845Z,22.30
2022-08-12T05:05:36.098Z,22.30
2022-08-12T05:08:08.104Z,22.40
2022-08-12T05:10:36.726Z,22.40
2022-08-12T05:13:07.028Z,22.50
2022-08-12T05:15:36.291Z,22.50
2022-08-12T05:18:21.994Z,22.50
2022-08-12T05:20:52.283Z,22.60
2022-08-12T05:23:22.427Z,22.70
2022-08-12T05:25:52.269Z,22.80
2022-08-12T05:28:20.829Z,22.90
2022-08-12T05:30:49.767Z,22.90
2022-08-12T05:33:40.481Z,23.00
2022-08-12T05:36:12.797Z,23.10
2022-08-12T05:39:00.130Z,23.20
2022-08-12T05:41:29.564Z,23.30
2022-08-12T05:43:59.843Z,23.40
2022-08-12T05:46:29.746Z,23.50
2022-08-12T05:49:01.308Z,23.60
2022-08-12T05:51:39.494Z,23.70
2022-08-12T05:54:12.030Z,23.70
2022-08-12T05:56:41.711Z,23.80
2022-08-12T05:59:11.545Z,23.90
2022-08-12T06:02:12.593Z,24.00
2022-08-12T06:04:29.622Z,24.10
2022-08-12T06:06:59.718Z,24.20
2022-08-12T06:09:28.822Z,24.30
2022-08-12T06:12:06.084Z,24.40
2022-08-12T06:14:37.879Z,24.40
2022-08-12T06:17:09.389Z,24.60
2022-08-12T06:20:27.001Z,24.70
2022-08-12T06:22:28.342Z,24.80
2022-08-12T06:24:57.458Z,24.90
2022-08-12T06:27:25.950Z,25.00
2022-08-12T06:30:10.105Z,25.10
2022-08-12T06:32:51.736Z,25.20
2022-08-12T06:35:47.049Z,25.30
2022-08-12T06:38:20.046Z,25.40
2022-08-12T06:41:06.910Z,25.50
2022-08-12T06:44:06.745Z,25.50
2022-08-12T06:46:25.879Z,25.60
2022-08-12T06:48:57.694Z,25.70
2022-08-12T06:51:32.472Z,25.80
2022-08-12T06:54:04.777Z,25.90
2022-08-12T06:57:02.605Z,26.00
2022-08-12T06:59:24.916Z,26.00
2022-08-12T07:01:55.285Z,26.10
2022-08-12T07:04:39.666Z,26.20
2022-08-12T07:07:09.377Z,26.30
2022-08-12T07:10:01.227Z,26.40
2022-08-12T07:12:46.757Z,26.50
2022-08-12T07:15:16.639Z,26.60
2022-08-12T07:17:45.325Z,26.70
2022-08-12T07:20:42.598Z,26.80
2022-08-12T07:23:24.729Z,26.90
2022-08-12T07:25:58.332Z,27.00
2022-08-12T07:28:28.422Z,27.10
2022-08-12T07:30:57.733Z,27.20
2022-08-12T07:33:28.227Z,27.20
2022-08-12T07:35:58.169Z,27.30
2022-08-12T07:38:29.854Z,27.40
2022-08-12T07:41:03.581Z,27.50
2022-08-12T07:43:32.972Z,27.50
2022-08-12T07:46:04.707Z,27.70
2022-08-12T07:48:36.759Z,27.70
2022-08-12T07:51:05.887Z,27.80
2022-08-12T07:53:47.689Z,27.90
2022-08-12T07:56:25.474Z,28.00
2022-08-12T07:58:54.078Z,28.10
2022-08-12T08:01:23.428Z,28.20
2022-08-12T08:04:12.962Z,28.20
2022-08-12T08:06:45.090Z,28.30
2022-08-12T08:09:14.990Z,28.40
2022-08-12T08:12:02.048Z,28.50
2022-08-12T08:14:32.945Z,28.60
2022-08-12T08:17:03.876Z,28.70
2022-08-12T08:20:03.675Z,28.80
2022-08-12T08:22:41.471Z,28.90
2022-08-12T08:25:36.828Z,29.00
2022-08-12T08:28:10.029Z,29.10
2022-08-12T08:30:42.686Z,29.20
2022-08-12T08:33:17.872Z,29.30
2022-08-12T08:35:54.938Z,29.30
2022-08-12T08:38:32.651Z,29.40
2022-08-12T08:42:16.729Z,29.50
2022-08-12T08:44:13.101Z,29.60
2022-08-12T08:47:02.641Z,29.70
2022-08-12T08:49:31.587Z,29.80
2022-08-12T08:52:03.504Z,29.90
2022-08-12T08:54:33.621Z,30.00
2022-08-12T08:57:02.761Z,30.10
2022-08-12T08:59:33.318Z,30.20
2022-08-12T09:02:03.054Z,30.20
2022-08-12T09:05:12.752Z,30.20
2022-08-12T09:07:51.656Z,30.30
2022-08-12T09:10:34.321Z,30.40
2022-08-12T09:13:29.437Z,30.40
2022-08-12T09:16:13.356Z,30.50
2022-08-12T09:18:43.801Z,30.60
2022-08-12T09:21:14.258Z,30.70
2022-08-12T09:26:33.866Z,30.70
2022-08-12T09:29:15.925Z,30.70
2022-08-12T09:32:08.006Z,30.80
2022-08-12T09:34:37.637Z,30.90
2022-08-12T09:37:18.846Z,31.00
2022-08-12T09:42:07.093Z,31.00
2022-08-12T09:43:18.533Z,31.20
2022-08-12T09:46:06.465Z,31.20
2022-08-12T09:48:44.858Z,31.20
2022-08-12T09:51:37.929Z,31.40
2022-08-12T09:54:34.167Z,31.40
2022-08-12T09:58:08.110Z,31.50
2022-08-12T10:00:14.954Z,31.60
2022-08-12T10:02:57.193Z,31.70
2022-08-12T10:06:26.176Z,31.80
2022-08-12T10:08:23.849Z,31.80
2022-08-12T10:11:20.407Z,31.90
2022-08-12T10:13:52.836Z,32.00
2022-08-12T10:16:23.259Z,32.00
2022-08-12T10:18:54.926Z,32.10
2022-08-12T10:21:36.037Z,32.20
2022-08-12T10:24:07.460Z,32.30
2022-08-12T10:26:55.142Z,32.40
2022-08-12T10:30:37.334Z,32.40
2022-08-12T10:32:44.285Z,32.50
2022-08-12T10:35:17.160Z,32.50
2022-08-12T10:38:35.854Z,32.50
2022-08-12T10:40:58.950Z,32.50
2022-08-12T10:43:55.610Z,32.50
2022-08-12T10:46:49.057Z,32.60
2022-08-12T10:50:02.381Z,32.70
2022-08-12T10:52:34.082Z,32.70
2022-08-12T10:55:00.738Z,32.80
2022-08-12T10:58:13.689Z,32.90
2022-08-12T11:00:30.804Z,32.90
2022-08-12T11:04:24.857Z,33.00
2022-08-12T11:07:07.717Z,33.20
2022-08-12T11:08:46.465Z,33.30
2022-08-12T11:12:35.748Z,33.60
2022-08-12T11:14:09.897Z,33.90
2022-08-12T11:17:33.662Z,34.30
2022-08-12T11:19:47.264Z,34.70
2022-08-12T11:22:17.976Z,35.00
2022-08-12T11:24:51.365Z,35.00
2022-08-12T11:27:22.320Z,35.20
2022-08-12T11:30:01.667Z,35.40
2022-08-12T11:32:38.923Z,35.40
2022-08-12T11:35:11.777Z,35.30
2022-08-12T11:37:59.097Z,35.60
2022-08-12T11:40:47.365Z,35.60
2022-08-12T11:43:19.571Z,35.60
2022-08-12T11:45:52.863Z,35.60
2022-08-12T11:48:26.954Z,35.60
2022-08-12T11:50:56.936Z,35.60
2022-08-12T11:53:56.948Z,35.60
2022-08-12T11:56:14.963Z,35.60
2022-08-12T12:02:03.067Z,35.50
2022-08-12T12:04:28.915Z,35.50
2022-08-12T12:07:07.388Z,35.60
2022-08-12T12:09:52.192Z,35.60
2022-08-12T12:12:23.479Z,35.80
2022-08-12T12:14:55.922Z,35.90
2022-08-12T12:17:25.683Z,36.00
2022-08-12T12:20:02.513Z,36.00
2022-08-12T12:22:31.797Z,36.10
2022-08-12T12:25:13.230Z,36.20
2022-08-12T12:28:05.796Z,36.20
2022-08-12T12:30:37.739Z,36.30
2022-08-12T12:33:07.467Z,36.30
2022-08-12T12:36:19.858Z,36.40
2022-08-12T12:38:46.172Z,36.50
2022-08-12T12:41:16.363Z,36.60
2022-08-12T12:44:03.718Z,36.70
2022-08-12T12:46:34.870Z,36.80
2022-08-12T12:49:11.057Z,36.90
2022-08-12T12:52:06.808Z,37.10
2022-08-12T12:54:29.367Z,37.20
2022-08-12T12:56:58.501Z,37.30
2022-08-12T12:59:54.366Z,37.30
2022-08-12T13:02:44.801Z,37.30
2022-08-12T13:41:40.810Z,36.50
2022-08-12T13:44:35.815Z,35.80
2022-08-12T13:47:12.401Z,35.50
2022-08-12T13:49:53.535Z,35.10
2022-08-12T13:52:25.594Z,34.80
2022-08-12T13:54:56.591Z,34.50
2022-08-12T13:57:44.525Z,34.20
2022-08-12T14:00:17.301Z,34.00
2022-08-12T14:02:46.785Z,33.80
2022-08-12T14:05:30.167Z,33.70
2022-08-12T14:08:34.514Z,33.60
2022-08-12T14:11:03.822Z,33.50
2022-08-12T14:14:03.332Z,33.40
2022-08-12T14:16:37.557Z,33.30
2022-08-12T14:19:24.836Z,33.10
2022-08-12T14:22:01.016Z,32.90
2022-08-12T14:24:35.781Z,32.70
2022-08-12T14:27:09.252Z,32.60
2022-08-12T14:30:05.025Z,32.40
2022-08-12T14:33:03.854Z,32.30
2022-08-12T14:35:44.832Z,32.20
2022-08-12T14:38:25.785Z,32.20
2022-08-12T14:41:21.161Z,32.20
2022-08-12T14:44:04.747Z,32.20
2022-08-12T14:50:37.680Z,32.20
2022-08-12T14:59:23.990Z,32.10
2022-08-12T15:01:54.676Z,32.10
2022-08-12T15:04:45.389Z,32.10
2022-08-12T15:07:33.405Z,32.00
2022-08-12T15:10:03.960Z,32.00
2022-08-12T15:12:33.849Z,31.90
2022-08-12T15:15:02.900Z,31.90
2022-08-12T15:17:38.724Z,31.80
2022-08-12T15:20:31.198Z,31.80
2022-08-12T15:23:00.110Z,31.70
2022-08-12T15:25:29.278Z,31.60
2022-08-12T15:28:30.646Z,31.60
2022-08-12T15:31:02.473Z,31.50
2022-08-12T15:33:37.890Z,31.40
2022-08-12T15:36:19.527Z,31.40
2022-08-12T15:39:27.713Z,31.30
2022-08-12T15:41:57.023Z,31.20
2022-08-12T15:44:41.522Z,31.20
2022-08-12T15:47:12.048Z,31.10
2022-08-12T15:50:00.148Z,31.10
2022-08-12T15:52:31.970Z,31.00
2022-08-12T15:55:05.956Z,31.00
2022-08-12T15:57:41.643Z,31.00
2022-08-12T16:00:29.047Z,30.80
2022-08-12T16:03:05.494Z,30.80
2022-08-12T16:06:12.068Z,30.80
2022-08-12T16:08:27.441Z,30.70
2022-08-12T16:10:57.783Z,30.70
2022-08-12T16:13:34.930Z,30.50
2022-08-12T16:16:12.234Z,30.50
2022-08-12T16:18:59.571Z,30.40
2022-08-12T16:21:51.060Z,30.40
2022-08-12T16:24:23.595Z,30.30
2022-08-12T16:26:54.446Z,30.30
2022-08-12T16:29:52.196Z,30.10
2022-08-12T16:32:24.626Z,29.80
2022-08-12T16:35:01.989Z,29.40
2022-08-12T16:38:25.423Z,29.00
2022-08-12T16:40:46.154Z,28.80
2022-08-12T16:43:35.421Z,28.50
2022-08-12T16:46:31.639Z,28.40
2022-08-12T16:48:59.562Z,28.30
2022-08-12T16:51:40.275Z,28.20
2022-08-12T16:54:36.541Z,28.20
2022-08-12T16:57:09.717Z,28.20
2022-08-12T16:59:57.381Z,28.20
2022-08-12T17:02:33.620Z,28.20
2022-08-12T17:05:04.909Z,28.10
2022-08-12T17:07:43.261Z,28.10
2022-08-12T17:10:18.522Z,28.10
2022-08-12T17:13:09.455Z,28.00
2022-08-12T17:16:05.891Z,28.00
2022-08-12T17:18:42.355Z,28.00
2022-08-12T17:21:17.543Z,27.90
2022-08-12T17:23:53.757Z,27.90
2022-08-12T17:26:28.290Z,27.80
2022-08-12T17:29:01.956Z,27.80
2022-08-12T17:31:59.205Z,27.80
2022-08-12T17:34:39.268Z,27.70
2022-08-12T17:37:08.504Z,27.70
2022-08-12T17:40:12.353Z,27.70
2022-08-12T17:42:32.857Z,27.70
2022-08-12T17:45:17.799Z,27.60
2022-08-12T17:48:01.131Z,27.60
2022-08-12T17:50:32.496Z,27.60
2022-08-12T17:53:03.013Z,27.50
2022-08-12T17:55:40.380Z,27.50
2022-08-12T17:58:14.437Z,27.50
2022-08-12T18:00:45.821Z,27.40
2022-08-12T18:04:04.940Z,27.40
2022-08-12T18:06:14.136Z,27.30
2022-08-12T18:08:54.253Z,27.30
2022-08-12T18:12:04.926Z,27.20
2022-08-12T18:14:31.865Z,27.20
2022-08-12T18:17:02.687Z,27.10
2022-08-12T18:20:03.780Z,27.10
2022-08-12T18:22:22.020Z,27.00
2022-08-12T18:25:02.106Z,27.00
2022-08-12T18:27:47.002Z,27.00
2022-08-12T18:30:29.012Z,26.90
2022-08-12T18:33:03.698Z,26.90
2022-08-12T18:35:47.379Z,26.80
2022-08-12T18:38:22.648Z,26.80
2022-08-12T18:41:11.684Z,26.80
2022-08-12T18:43:58.750Z,26.70
2022-08-12T18:46:33.816Z,26.70
2022-08-12T18:49:17.229Z,26.60
2022-08-12T18:51:55.246Z,26.60
2022-08-12T18:54:32.277Z,26.50
2022-08-12T18:57:04.752Z,26.50
2022-08-12T19:00:02.533Z,26.50
2022-08-12T19:02:27.061Z,26.50
2022-08-12T19:04:58.614Z,26.40
2022-08-12T19:07:29.835Z,26.40
2022-08-12T19:10:17.658Z,26.40
2022-08-12T19:13:09.256Z,26.30
2022-08-12T19:15:43.193Z,26.30
2022-08-12T19:18:12.653Z,26.30
2022-08-12T19:20:44.134Z,26.30
2022-08-12T19:23:21.053Z,26.30
2022-08-12T19:25:59.580Z,26.20
2022-08-12T19:28:36.020Z,26.20
2022-08-12T19:31:44.813Z,26.20
2022-08-12T19:35:24.071Z,26.10
2022-08-12T19:37:27.546Z,26.10
2022-08-12T19:40:20.465Z,26.00
2022-08-12T19:43:01.590Z,26.00
2022-08-12T19:45:42.229Z,25.90
2022-08-12T19:48:16.543Z,25.90
2022-08-12T19:50:50.249Z,25.90
2022-08-12T19:53:23.527Z,25.90
2022-08-12T19:55:53.802Z,25.80
2022-08-12T19:58:23.348Z,25.90
2022-08-12T20:00:53.565Z,26.00
2022-08-12T20:03:39.029Z,26.40
2022-08-12T20:06:15.595Z,25.80
2022-08-12T20:08:48.021Z,25.80
2022-08-12T20:12:12.661Z,25.80
2022-08-12T20:14:07.695Z,25.80
2022-08-12T20:19:28.649Z,25.70
2022-08-12T20:22:23.948Z,25.70
2022-08-12T20:24:56.726Z,25.80
2022-08-12T20:27:29.593Z,25.70
2022-08-12T20:30:52.922Z,25.70
2022-08-12T20:33:50.256Z,25.80
2022-08-12T20:36:42.310Z,25.80
2022-08-12T20:39:37.142Z,25.80
2022-08-12T20:41:58.961Z,25.90
2022-08-12T20:44:33.347Z,25.90
2022-08-12T20:47:18.199Z,25.90
2022-08-12T20:49:55.529Z,25.90
2022-08-12T20:52:49.252Z,25.90
2022-08-12T20:55:19.271Z,25.90
2022-08-12T20:58:01.979Z,25.90
2022-08-12T21:00:33.656Z,25.90
2022-08-12T21:03:23.436Z,25.80
2022-08-12T21:06:13.200Z,25.80
2022-08-12T21:08:42.915Z,25.80
2022-08-12T21:11:11.864Z,25.70
2022-08-12T21:13:42.383Z,25.70
2022-08-12T21:16:11.720Z,25.60
2022-08-12T21:18:41.050Z,25.50
2022-08-12T21:21:23.953Z,25.40
2022-08-12T21:23:56.433Z,25.30
2022-08-12T21:26:28.018Z,25.30
2022-08-12T21:29:01.085Z,25.20
2022-08-12T21:32:38.016Z,25.20
2022-08-12T21:34:25.996Z,25.10
2022-08-12T21:37:27.351Z,25.00
2022-08-12T21:39:56.792Z,25.00
2022-08-12T21:42:28.081Z,25.00
2022-08-12T21:45:48.351Z,24.90
2022-08-12T21:47:53.267Z,24.90
2022-08-12T21:50:22.252Z,24.80
2022-08-12T21:52:57.905Z,24.80
2022-08-12T21:55:26.826Z,24.80
2022-08-12T21:58:16.573Z,24.80
2022-08-12T22:00:47.133Z,24.70
2022-08-12T22:04:03.498Z,24.70
2022-08-12T22:06:31.003Z,24.70
2022-08-12T22:09:19.311Z,24.70
2022-08-12T22:11:59.413Z,24.70
2022-08-12T22:14:45.170Z,24.60
2022-08-12T22:17:50.101Z,24.60
2022-08-12T22:21:00.937Z,24.60
2022-08-12T22:24:05.316Z,24.50
2022-08-12T22:26:37.878Z,24.50
2022-08-12T22:29:38.861Z,24.50
2022-08-12T22:32:26.329Z,24.50
2022-08-12T22:35:29.732Z,24.40
2022-08-12T22:38:35.267Z,24.40
2022-08-12T22:41:36.734Z,24.40
2022-08-12T22:44:54.793Z,24.40
2022-08-12T22:47:55.373Z,24.40
2022-08-12T22:50:40.618Z,24.30
2022-08-12T22:53:36.147Z,24.30
2022-08-12T22:56:36.330Z,24.30
2022-08-12T22:59:26.147Z,24.30
2022-08-12T23:02:31.657Z,24.30
2022-08-12T23:05:57.799Z,24.30
2022-08-12T23:08:35.409Z,24.30
2022-08-12T23:11:36.207Z,24.30
2022-08-12T23:14:26.983Z,24.30
2022-08-12T23:17:08.291Z,24.30
2022-08-12T23:20:13.322Z,24.30
2022-08-12T23:23:02.819Z,24.30
2022-08-12T23:25:55.887Z,24.20
2022-08-12T23:29:30.076Z,24.20
2022-08-12T23:32:37.021Z,24.20
2022-08-12T23:35:18.708Z,24.20
2022-08-12T23:37:59.527Z,24.10
2022-08-12T23:40:31.137Z,24.10
2022-08-12T23:43:01.808Z,24.10
2022-08-12T23:45:31.408Z,24.00
2022-08-12T23:48:03.283Z,24.00
2022-08-12T23:50:34.405Z,24.00
2022-08-12T23:53:05.670Z,24.00
2022-08-12T23:55:40.833Z,23.90
2022-08-12T23:58:21.510Z,24.00
